sensor_id;sensor_type;location;lat;lon;timestamp;P1;durP1;ratioP1;P2;durP2;ratioP2
59109;SDS011;44895;47.438;18.978;2024-03-08T00:01:31;17.45;;;12.75;;
59109;SDS011;44895;47.438;18.978;2024-03-08T00:04:36;21.55;;;14.13;;
59109;SDS011;44895;47.438;18.978;2024-03-08T00:07:40;18.23;;;13.25;;
59109;SDS011;44895;47.438;18.978;2024-03-08T00:10:44;20.90;;;13.60;;
59109;SDS011;44895;47.438;18.978;2024-03-08T00:13:48;18.27;;;13.57;;
59109;SDS011;44895;47.438;18.978;2024-03-08T00:16:52;21.95;;;13.43;;
59109;SDS011;44895;47.438;18.978;2024-03-08T00:19:57;21.55;;;12.80;;
59109;SDS011;44895;47.438;18.978;2024-03-08T00:23:01;22.45;;;13.77;;
59109;SDS011;44895;47.438;18.978;2024-03-08T00:26:04;19.23;;;13.20;;
59109;SDS011;44895;47.438;18.978;2024-03-08T00:29:10;21.13;;;14.20;;
59109;SDS011;44895;47.438;18.978;2024-03-08T00:32:13;24.30;;;14.38;;
59109;SDS011;44895;47.438;18.978;2024-03-08T00:35:17;22.98;;;14.63;;
59109;SDS011;44895;47.438;18.978;2024-03-08T00:38:21;16.85;;;13.07;;
59109;SDS011;44895;47.438;18.978;2024-03-08T00:41:25;25.63;;;15.20;;
59109;SDS011;44895;47.438;18.978;2024-03-08T00:44:29;24.95;;;14.45;;
59109;SDS011;44895;47.438;18.978;2024-03-08T00:47:34;22.73;;;14.73;;
59109;SDS011;44895;47.438;18.978;2024-03-08T00:50:38;19.65;;;14.77;;
59109;SDS011;44895;47.438;18.978;2024-03-08T00:53:42;21.95;;;14.75;;
59109;SDS011;44895;47.438;18.978;2024-03-08T00:56:46;18.25;;;14.75;;
59109;SDS011;44895;47.438;18.978;2024-03-08T00:59:50;25.00;;;14.57;;
59109;SDS011;44895;47.438;18.978;2024-03-08T01:02:53;24.45;;;15.35;;
59109;SDS011;44895;47.438;18.978;2024-03-08T01:05:57;21.45;;;15.82;;
59109;SDS011;44895;47.438;18.978;2024-03-08T01:09:03;23.70;;;16.95;;
59109;SDS011;44895;47.438;18.978;2024-03-08T01:12:06;23.85;;;13.85;;
59109;SDS011;44895;47.438;18.978;2024-03-08T01:15:11;21.38;;;15.57;;
59109;SDS011;44895;47.438;18.978;2024-03-08T01:18:14;22.30;;;15.82;;
59109;SDS011;44895;47.438;18.978;2024-03-08T01:21:18;25.05;;;16.45;;
59109;SDS011;44895;47.438;18.978;2024-03-08T01:24:22;19.98;;;13.07;;
59109;SDS011;44895;47.438;18.978;2024-03-08T01:27:26;21.67;;;14.82;;
59109;SDS011;44895;47.438;18.978;2024-03-08T01:30:30;26.73;;;15.93;;
59109;SDS011;44895;47.438;18.978;2024-03-08T01:33:35;23.05;;;16.00;;
59109;SDS011;44895;47.438;18.978;2024-03-08T01:36:39;29.60;;;19.38;;
59109;SDS011;44895;47.438;18.978;2024-03-08T01:39:43;23.15;;;17.35;;
59109;SDS011;44895;47.438;18.978;2024-03-08T01:42:47;26.85;;;16.92;;
59109;SDS011;44895;47.438;18.978;2024-03-08T01:45:51;22.13;;;15.02;;
59109;SDS011;44895;47.438;18.978;2024-03-08T01:48:54;24.90;;;17.63;;
59109;SDS011;44895;47.438;18.978;2024-03-08T01:51:59;27.02;;;19.48;;
59109;SDS011;44895;47.438;18.978;2024-03-08T01:55:04;30.95;;;19.50;;
59109;SDS011;44895;47.438;18.978;2024-03-08T01:58:10;28.38;;;19.10;;
59109;SDS011;44895;47.438;18.978;2024-03-08T02:01:15;26.60;;;18.92;;
59109;SDS011;44895;47.438;18.978;2024-03-08T02:04:19;31.63;;;18.85;;
59109;SDS011;44895;47.438;18.978;2024-03-08T02:07:24;28.08;;;18.75;;
59109;SDS011;44895;47.438;18.978;2024-03-08T02:10:28;25.50;;;18.60;;
59109;SDS011;44895;47.438;18.978;2024-03-08T02:13:32;29.38;;;18.35;;
59109;SDS011;44895;47.438;18.978;2024-03-08T02:16:37;28.95;;;19.83;;
59109;SDS011;44895;47.438;18.978;2024-03-08T02:19:41;28.02;;;19.98;;
59109;SDS011;44895;47.438;18.978;2024-03-08T02:22:45;29.27;;;18.83;;
59109;SDS011;44895;47.438;18.978;2024-03-08T02:25:49;33.70;;;21.42;;
59109;SDS011;44895;47.438;18.978;2024-03-08T02:28:53;35.00;;;20.55;;
59109;SDS011;44895;47.438;18.978;2024-03-08T02:31:57;32.85;;;23.25;;
59109;SDS011;44895;47.438;18.978;2024-03-08T02:35:01;37.72;;;20.75;;
59109;SDS011;44895;47.438;18.978;2024-03-08T02:38:04;32.25;;;20.50;;
59109;SDS011;44895;47.438;18.978;2024-03-08T02:41:08;35.97;;;25.08;;
59109;SDS011;44895;47.438;18.978;2024-03-08T02:44:13;37.00;;;24.23;;
59109;SDS011;44895;47.438;18.978;2024-03-08T02:47:18;35.63;;;22.45;;
59109;SDS011;44895;47.438;18.978;2024-03-08T02:50:22;39.05;;;22.70;;
59109;SDS011;44895;47.438;18.978;2024-03-08T02:53:25;36.97;;;21.73;;
59109;SDS011;44895;47.438;18.978;2024-03-08T02:56:29;35.20;;;22.60;;
59109;SDS011;44895;47.438;18.978;2024-03-08T02:59:33;38.55;;;24.27;;
59109;SDS011;44895;47.438;18.978;2024-03-08T03:02:38;40.42;;;25.27;;
59109;SDS011;44895;47.438;18.978;2024-03-08T03:05:42;33.85;;;22.23;;
59109;SDS011;44895;47.438;18.978;2024-03-08T03:08:45;41.85;;;24.58;;
59109;SDS011;44895;47.438;18.978;2024-03-08T03:11:49;36.75;;;22.27;;
59109;SDS011;44895;47.438;18.978;2024-03-08T03:14:53;42.83;;;24.55;;
59109;SDS011;44895;47.438;18.978;2024-03-08T03:17:57;36.70;;;22.17;;
59109;SDS011;44895;47.438;18.978;2024-03-08T03:21:01;37.00;;;24.70;;
59109;SDS011;44895;47.438;18.978;2024-03-08T03:24:10;40.13;;;26.42;;
59109;SDS011;44895;47.438;18.978;2024-03-08T03:27:15;30.13;;;23.15;;
59109;SDS011;44895;47.438;18.978;2024-03-08T03:30:19;40.40;;;24.75;;
59109;SDS011;44895;47.438;18.978;2024-03-08T03:33:24;35.97;;;25.48;;
59109;SDS011;44895;47.438;18.978;2024-03-08T03:36:28;42.92;;;28.20;;
59109;SDS011;44895;47.438;18.978;2024-03-08T03:39:32;48.38;;;26.35;;
59109;SDS011;44895;47.438;18.978;2024-03-08T03:42:37;49.03;;;25.42;;
59109;SDS011;44895;47.438;18.978;2024-03-08T03:45:41;39.85;;;25.90;;
59109;SDS011;44895;47.438;18.978;2024-03-08T03:48:45;37.80;;;25.38;;
59109;SDS011;44895;47.438;18.978;2024-03-08T03:51:49;39.63;;;22.30;;
59109;SDS011;44895;47.438;18.978;2024-03-08T03:54:53;47.42;;;27.13;;
59109;SDS011;44895;47.438;18.978;2024-03-08T03:57:57;36.38;;;25.45;;
59109;SDS011;44895;47.438;18.978;2024-03-08T04:01:04;37.50;;;23.90;;
59109;SDS011;44895;47.438;18.978;2024-03-08T04:04:08;37.72;;;24.85;;
59109;SDS011;44895;47.438;18.978;2024-03-08T04:07:11;37.80;;;23.02;;
59109;SDS011;44895;47.438;18.978;2024-03-08T04:10:15;37.55;;;25.23;;
59109;SDS011;44895;47.438;18.978;2024-03-08T04:13:19;39.67;;;25.02;;
59109;SDS011;44895;47.438;18.978;2024-03-08T04:16:24;34.97;;;24.80;;
59109;SDS011;44895;47.438;18.978;2024-03-08T04:19:29;41.70;;;27.25;;
59109;SDS011;44895;47.438;18.978;2024-03-08T04:22:32;43.53;;;23.58;;
59109;SDS011;44895;47.438;18.978;2024-03-08T04:25:38;39.28;;;23.92;;
59109;SDS011;44895;47.438;18.978;2024-03-08T04:28:42;39.20;;;25.42;;
59109;SDS011;44895;47.438;18.978;2024-03-08T04:31:46;38.00;;;24.65;;
59109;SDS011;44895;47.438;18.978;2024-03-08T04:34:50;36.40;;;23.67;;
59109;SDS011;44895;47.438;18.978;2024-03-08T04:37:53;36.33;;;25.42;;
59109;SDS011;44895;47.438;18.978;2024-03-08T04:40:57;40.38;;;24.15;;
59109;SDS011;44895;47.438;18.978;2024-03-08T04:44:01;41.53;;;26.00;;
59109;SDS011;44895;47.438;18.978;2024-03-08T04:47:05;45.17;;;25.52;;
59109;SDS011;44895;47.438;18.978;2024-03-08T04:50:09;38.75;;;23.42;;
59109;SDS011;44895;47.438;18.978;2024-03-08T04:53:13;39.45;;;25.13;;
59109;SDS011;44895;47.438;18.978;2024-03-08T04:56:17;39.83;;;27.40;;
59109;SDS011;44895;47.438;18.978;2024-03-08T04:59:22;41.15;;;26.23;;
59109;SDS011;44895;47.438;18.978;2024-03-08T05:02:27;38.20;;;22.23;;
59109;SDS011;44895;47.438;18.978;2024-03-08T05:05:31;42.53;;;27.33;;
59109;SDS011;44895;47.438;18.978;2024-03-08T05:08:36;41.40;;;26.45;;
59109;SDS011;44895;47.438;18.978;2024-03-08T05:11:40;47.10;;;24.92;;
59109;SDS011;44895;47.438;18.978;2024-03-08T05:14:45;42.55;;;28.25;;
59109;SDS011;44895;47.438;18.978;2024-03-08T05:17:52;42.10;;;25.85;;
59109;SDS011;44895;47.438;18.978;2024-03-08T05:20:56;41.58;;;28.52;;
59109;SDS011;44895;47.438;18.978;2024-03-08T05:24:00;40.50;;;23.45;;
59109;SDS011;44895;47.438;18.978;2024-03-08T05:27:04;39.00;;;24.70;;
59109;SDS011;44895;47.438;18.978;2024-03-08T05:30:08;48.28;;;28.42;;
59109;SDS011;44895;47.438;18.978;2024-03-08T05:33:17;41.15;;;27.23;;
59109;SDS011;44895;47.438;18.978;2024-03-08T05:36:22;36.17;;;24.75;;
59109;SDS011;44895;47.438;18.978;2024-03-08T05:39:26;41.15;;;25.38;;
59109;SDS011;44895;47.438;18.978;2024-03-08T05:42:30;42.75;;;25.05;;
59109;SDS011;44895;47.438;18.978;2024-03-08T05:45:33;38.30;;;22.75;;
59109;SDS011;44895;47.438;18.978;2024-03-08T05:48:37;41.08;;;25.52;;
59109;SDS011;44895;47.438;18.978;2024-03-08T05:51:41;43.28;;;27.02;;
59109;SDS011;44895;47.438;18.978;2024-03-08T05:54:44;38.30;;;26.27;;
59109;SDS011;44895;47.438;18.978;2024-03-08T05:57:48;41.20;;;24.23;;
59109;SDS011;44895;47.438;18.978;2024-03-08T06:00:52;39.85;;;25.20;;
59109;SDS011;44895;47.438;18.978;2024-03-08T06:03:56;38.72;;;24.50;;
59109;SDS011;44895;47.438;18.978;2024-03-08T06:07:00;37.67;;;25.13;;
59109;SDS011;44895;47.438;18.978;2024-03-08T06:10:07;44.97;;;27.17;;
59109;SDS011;44895;47.438;18.978;2024-03-08T06:13:14;37.92;;;25.55;;
59109;SDS011;44895;47.438;18.978;2024-03-08T06:16:18;39.08;;;22.45;;
59109;SDS011;44895;47.438;18.978;2024-03-08T06:19:22;41.65;;;27.05;;
59109;SDS011;44895;47.438;18.978;2024-03-08T06:22:26;39.97;;;24.65;;
59109;SDS011;44895;47.438;18.978;2024-03-08T06:25:30;38.45;;;25.80;;
59109;SDS011;44895;47.438;18.978;2024-03-08T06:28:33;38.47;;;22.85;;
59109;SDS011;44895;47.438;18.978;2024-03-08T06:31:40;41.08;;;26.38;;
59109;SDS011;44895;47.438;18.978;2024-03-08T06:34:44;45.58;;;26.70;;
59109;SDS011;44895;47.438;18.978;2024-03-08T06:37:48;34.55;;;24.13;;
59109;SDS011;44895;47.438;18.978;2024-03-08T06:40:51;41.72;;;24.35;;
59109;SDS011;44895;47.438;18.978;2024-03-08T06:43:56;42.53;;;23.75;;
59109;SDS011;44895;47.438;18.978;2024-03-08T06:47:01;38.05;;;24.85;;
59109;SDS011;44895;47.438;18.978;2024-03-08T06:50:05;35.85;;;24.80;;
59109;SDS011;44895;47.438;18.978;2024-03-08T06:53:09;43.42;;;26.90;;
59109;SDS011;44895;47.438;18.978;2024-03-08T06:56:12;43.25;;;27.27;;
59109;SDS011;44895;47.438;18.978;2024-03-08T06:59:16;42.78;;;27.88;;
59109;SDS011;44895;47.438;18.978;2024-03-08T07:02:21;44.45;;;29.17;;
59109;SDS011;44895;47.438;18.978;2024-03-08T07:05:27;41.38;;;26.17;;
59109;SDS011;44895;47.438;18.978;2024-03-08T07:08:32;41.47;;;25.42;;
59109;SDS011;44895;47.438;18.978;2024-03-08T07:11:36;40.28;;;28.85;;
59109;SDS011;44895;47.438;18.978;2024-03-08T07:14:40;41.35;;;25.42;;
59109;SDS011;44895;47.438;18.978;2024-03-08T07:17:44;40.28;;;27.55;;
59109;SDS011;44895;47.438;18.978;2024-03-08T07:20:47;46.42;;;27.45;;
59109;SDS011;44895;47.438;18.978;2024-03-08T07:23:52;44.08;;;27.27;;
59109;SDS011;44895;47.438;18.978;2024-03-08T07:27:05;38.67;;;26.73;;
59109;SDS011;44895;47.438;18.978;2024-03-08T07:30:08;38.55;;;25.35;;
59109;SDS011;44895;47.438;18.978;2024-03-08T07:33:15;41.92;;;26.90;;
59109;SDS011;44895;47.438;18.978;2024-03-08T07:36:19;42.00;;;26.42;;
59109;SDS011;44895;47.438;18.978;2024-03-08T07:39:23;39.47;;;26.15;;
59109;SDS011;44895;47.438;18.978;2024-03-08T07:42:27;50.33;;;27.67;;
59109;SDS011;44895;47.438;18.978;2024-03-08T07:45:32;41.70;;;25.80;;
59109;SDS011;44895;47.438;18.978;2024-03-08T07:48:36;38.95;;;24.90;;
59109;SDS011;44895;47.438;18.978;2024-03-08T07:51:40;45.03;;;26.90;;
59109;SDS011;44895;47.438;18.978;2024-03-08T07:54:43;43.88;;;27.88;;
59109;SDS011;44895;47.438;18.978;2024-03-08T07:57:47;46.67;;;29.38;;
59109;SDS011;44895;47.438;18.978;2024-03-08T08:00:51;44.17;;;27.77;;
59109;SDS011;44895;47.438;18.978;2024-03-08T08:03:54;37.60;;;23.75;;
59109;SDS011;44895;47.438;18.978;2024-03-08T08:07:00;45.78;;;28.48;;
59109;SDS011;44895;47.438;18.978;2024-03-08T08:10:03;42.80;;;29.95;;
59109;SDS011;44895;47.438;18.978;2024-03-08T08:13:10;47.60;;;27.90;;
59109;SDS011;44895;47.438;18.978;2024-03-08T08:16:14;48.47;;;30.55;;
59109;SDS011;44895;47.438;18.978;2024-03-08T08:19:18;52.30;;;28.73;;
59109;SDS011;44895;47.438;18.978;2024-03-08T08:22:22;52.88;;;30.65;;
59109;SDS011;44895;47.438;18.978;2024-03-08T08:25:25;50.65;;;29.92;;
59109;SDS011;44895;47.438;18.978;2024-03-08T08:28:29;49.38;;;27.63;;
59109;SDS011;44895;47.438;18.978;2024-03-08T08:31:34;40.20;;;25.73;;
59109;SDS011;44895;47.438;18.978;2024-03-08T08:34:38;47.92;;;27.33;;
59109;SDS011;44895;47.438;18.978;2024-03-08T08:37:41;44.97;;;26.95;;
59109;SDS011;44895;47.438;18.978;2024-03-08T08:40:45;45.88;;;29.10;;
59109;SDS011;44895;47.438;18.978;2024-03-08T08:43:50;53.05;;;32.13;;
59109;SDS011;44895;47.438;18.978;2024-03-08T08:46:54;50.80;;;31.10;;
59109;SDS011;44895;47.438;18.978;2024-03-08T08:49:58;47.80;;;27.45;;
59109;SDS011;44895;47.438;18.978;2024-03-08T08:53:02;43.35;;;28.35;;
59109;SDS011;44895;47.438;18.978;2024-03-08T08:56:07;57.95;;;31.05;;
59109;SDS011;44895;47.438;18.978;2024-03-08T08:59:11;50.78;;;28.98;;
59109;SDS011;44895;47.438;18.978;2024-03-08T09:02:17;51.38;;;28.98;;
59109;SDS011;44895;47.438;18.978;2024-03-08T09:05:24;56.38;;;30.80;;
59109;SDS011;44895;47.438;18.978;2024-03-08T09:08:27;58.78;;;32.78;;
59109;SDS011;44895;47.438;18.978;2024-03-08T09:11:32;43.33;;;28.60;;
59109;SDS011;44895;47.438;18.978;2024-03-08T09:14:35;48.20;;;27.90;;
59109;SDS011;44895;47.438;18.978;2024-03-08T09:17:39;48.10;;;30.85;;
59109;SDS011;44895;47.438;18.978;2024-03-08T09:20:43;46.65;;;29.00;;
59109;SDS011;44895;47.438;18.978;2024-03-08T09:23:47;45.30;;;28.48;;
59109;SDS011;44895;47.438;18.978;2024-03-08T09:26:51;39.97;;;26.27;;
59109;SDS011;44895;47.438;18.978;2024-03-08T09:29:55;50.08;;;31.02;;
59109;SDS011;44895;47.438;18.978;2024-03-08T09:32:59;47.25;;;27.08;;
59109;SDS011;44895;47.438;18.978;2024-03-08T09:36:02;52.75;;;30.90;;
59109;SDS011;44895;47.438;18.978;2024-03-08T09:39:07;48.42;;;28.98;;
59109;SDS011;44895;47.438;18.978;2024-03-08T09:42:11;41.63;;;27.98;;
59109;SDS011;44895;47.438;18.978;2024-03-08T09:45:19;48.80;;;31.23;;
59109;SDS011;44895;47.438;18.978;2024-03-08T09:48:28;46.88;;;28.23;;
59109;SDS011;44895;47.438;18.978;2024-03-08T09:51:33;53.55;;;30.15;;
59109;SDS011;44895;47.438;18.978;2024-03-08T09:54:38;43.75;;;26.17;;
59109;SDS011;44895;47.438;18.978;2024-03-08T09:57:43;51.25;;;29.80;;
59109;SDS011;44895;47.438;18.978;2024-03-08T10:01:05;46.90;;;29.88;;
59109;SDS011;44895;47.438;18.978;2024-03-08T10:04:09;42.70;;;26.80;;
59109;SDS011;44895;47.438;18.978;2024-03-08T10:07:13;53.80;;;30.83;;
59109;SDS011;44895;47.438;18.978;2024-03-08T10:10:18;51.00;;;28.48;;
59109;SDS011;44895;47.438;18.978;2024-03-08T10:13:22;44.22;;;25.70;;
59109;SDS011;44895;47.438;18.978;2024-03-08T10:16:27;48.58;;;28.00;;
59109;SDS011;44895;47.438;18.978;2024-03-08T10:19:32;45.78;;;29.27;;
59109;SDS011;44895;47.438;18.978;2024-03-08T10:22:36;45.42;;;28.90;;
59109;SDS011;44895;47.438;18.978;2024-03-08T10:25:41;43.55;;;27.02;;
59109;SDS011;44895;47.438;18.978;2024-03-08T10:28:47;39.78;;;27.02;;
59109;SDS011;44895;47.438;18.978;2024-03-08T10:31:52;44.08;;;27.15;;
59109;SDS011;44895;47.438;18.978;2024-03-08T10:34:56;43.08;;;28.23;;
59109;SDS011;44895;47.438;18.978;2024-03-08T10:37:59;41.03;;;27.77;;
59109;SDS011;44895;47.438;18.978;2024-03-08T10:41:10;49.50;;;25.40;;
59109;SDS011;44895;47.438;18.978;2024-03-08T10:44:24;35.28;;;24.75;;
59109;SDS011;44895;47.438;18.978;2024-03-08T10:47:32;38.72;;;24.98;;
59109;SDS011;44895;47.438;18.978;2024-03-08T10:50:43;39.95;;;24.20;;
59109;SDS011;44895;47.438;18.978;2024-03-08T10:53:53;43.70;;;30.48;;
59109;SDS011;44895;47.438;18.978;2024-03-08T10:56:59;34.13;;;23.45;;
59109;SDS011;44895;47.438;18.978;2024-03-08T11:00:06;39.13;;;22.07;;
59109;SDS011;44895;47.438;18.978;2024-03-08T11:06:47;40.97;;;23.65;;
59109;SDS011;44895;47.438;18.978;2024-03-08T11:09:51;40.10;;;25.45;;
59109;SDS011;44895;47.438;18.978;2024-03-08T11:12:54;36.20;;;25.27;;
59109;SDS011;44895;47.438;18.978;2024-03-08T11:15:58;43.53;;;26.38;;
59109;SDS011;44895;47.438;18.978;2024-03-08T11:19:23;45.67;;;27.17;;
59109;SDS011;44895;47.438;18.978;2024-03-08T11:22:28;46.78;;;26.90;;
59109;SDS011;44895;47.438;18.978;2024-03-08T11:25:39;32.92;;;23.90;;
59109;SDS011;44895;47.438;18.978;2024-03-08T11:28:50;38.22;;;24.48;;
59109;SDS011;44895;47.438;18.978;2024-03-08T11:32:06;32.15;;;21.65;;
59109;SDS011;44895;47.438;18.978;2024-03-08T11:35:20;34.05;;;22.98;;
59109;SDS011;44895;47.438;18.978;2024-03-08T11:38:26;31.42;;;21.48;;
59109;SDS011;44895;47.438;18.978;2024-03-08T11:41:30;34.95;;;23.70;;
59109;SDS011;44895;47.438;18.978;2024-03-08T11:44:34;34.50;;;24.00;;
59109;SDS011;44895;47.438;18.978;2024-03-08T11:47:41;35.63;;;24.25;;
59109;SDS011;44895;47.438;18.978;2024-03-08T11:50:46;27.50;;;19.80;;
59109;SDS011;44895;47.438;18.978;2024-03-08T11:53:52;34.25;;;23.67;;
59109;SDS011;44895;47.438;18.978;2024-03-08T11:56:59;38.80;;;24.13;;
59109;SDS011;44895;47.438;18.978;2024-03-08T12:03:10;36.58;;;23.95;;
59109;SDS011;44895;47.438;18.978;2024-03-08T12:06:15;33.47;;;20.73;;
59109;SDS011;44895;47.438;18.978;2024-03-08T12:09:18;25.17;;;17.83;;
59109;SDS011;44895;47.438;18.978;2024-03-08T12:12:24;26.30;;;18.05;;
59109;SDS011;44895;47.438;18.978;2024-03-08T12:15:28;22.33;;;15.85;;
59109;SDS011;44895;47.438;18.978;2024-03-08T12:18:37;26.33;;;17.98;;
59109;SDS011;44895;47.438;18.978;2024-03-08T12:21:42;23.88;;;16.95;;
59109;SDS011;44895;47.438;18.978;2024-03-08T12:25:04;26.00;;;16.67;;
59109;SDS011;44895;47.438;18.978;2024-03-08T12:28:12;25.58;;;17.42;;
59109;SDS011;44895;47.438;18.978;2024-03-08T12:31:21;23.08;;;16.45;;
59109;SDS011;44895;47.438;18.978;2024-03-08T12:34:27;25.83;;;16.42;;
59109;SDS011;44895;47.438;18.978;2024-03-08T12:37:31;20.92;;;15.43;;
59109;SDS011;44895;47.438;18.978;2024-03-08T12:40:35;20.80;;;15.70;;
59109;SDS011;44895;47.438;18.978;2024-03-08T12:46:53;20.15;;;15.50;;
59109;SDS011;44895;47.438;18.978;2024-03-08T12:49:56;22.70;;;15.63;;
59109;SDS011;44895;47.438;18.978;2024-03-08T12:53:00;25.45;;;18.75;;
59109;SDS011;44895;47.438;18.978;2024-03-08T12:56:04;23.15;;;15.75;;
59109;SDS011;44895;47.438;18.978;2024-03-08T12:59:10;30.73;;;18.17;;
59109;SDS011;44895;47.438;18.978;2024-03-08T13:02:15;26.98;;;19.40;;
59109;SDS011;44895;47.438;18.978;2024-03-08T13:05:20;26.83;;;17.75;;
59109;SDS011;44895;47.438;18.978;2024-03-08T13:08:23;22.90;;;18.25;;
59109;SDS011;44895;47.438;18.978;2024-03-08T13:11:31;24.25;;;16.70;;
59109;SDS011;44895;47.438;18.978;2024-03-08T13:14:42;23.65;;;16.25;;
59109;SDS011;44895;47.438;18.978;2024-03-08T13:17:47;20.20;;;15.50;;
59109;SDS011;44895;47.438;18.978;2024-03-08T13:20:51;22.23;;;15.35;;
59109;SDS011;44895;47.438;18.978;2024-03-08T13:23:55;18.92;;;14.20;;
59109;SDS011;44895;47.438;18.978;2024-03-08T13:26:59;18.73;;;14.90;;
59109;SDS011;44895;47.438;18.978;2024-03-08T13:30:03;23.40;;;12.45;;
59109;SDS011;44895;47.438;18.978;2024-03-08T13:33:07;18.55;;;11.30;;
59109;SDS011;44895;47.438;18.978;2024-03-08T13:36:11;19.35;;;12.60;;
59109;SDS011;44895;47.438;18.978;2024-03-08T13:39:24;18.30;;;12.75;;
59109;SDS011;44895;47.438;18.978;2024-03-08T13:42:28;17.20;;;13.30;;
59109;SDS011;44895;47.438;18.978;2024-03-08T13:45:32;15.25;;;11.23;;
59109;SDS011;44895;47.438;18.978;2024-03-08T13:48:37;16.92;;;12.10;;
59109;SDS011;44895;47.438;18.978;2024-03-08T13:51:44;30.27;;;16.42;;
59109;SDS011;44895;47.438;18.978;2024-03-08T13:54:48;15.48;;;12.02;;
59109;SDS011;44895;47.438;18.978;2024-03-08T13:57:53;18.13;;;12.90;;
59109;SDS011;44895;47.438;18.978;2024-03-08T14:00:56;18.27;;;12.23;;
59109;SDS011;44895;47.438;18.978;2024-03-08T14:04:00;16.45;;;12.57;;
59109;SDS011;44895;47.438;18.978;2024-03-08T14:07:04;17.52;;;10.80;;
59109;SDS011;44895;47.438;18.978;2024-03-08T14:10:08;19.83;;;12.38;;
59109;SDS011;44895;47.438;18.978;2024-03-08T14:13:12;18.52;;;11.40;;
59109;SDS011;44895;47.438;18.978;2024-03-08T14:16:19;17.08;;;12.20;;
59109;SDS011;44895;47.438;18.978;2024-03-08T14:19:23;19.17;;;11.95;;
59109;SDS011;44895;47.438;18.978;2024-03-08T14:22:27;16.27;;;10.77;;
59109;SDS011;44895;47.438;18.978;2024-03-08T14:25:31;17.92;;;12.77;;
59109;SDS011;44895;47.438;18.978;2024-03-08T14:28:34;25.60;;;14.52;;
59109;SDS011;44895;47.438;18.978;2024-03-08T14:31:38;25.10;;;16.58;;
59109;SDS011;44895;47.438;18.978;2024-03-08T14:34:43;25.00;;;17.17;;
59109;SDS011;44895;47.438;18.978;2024-03-08T14:37:49;23.45;;;18.23;;
59109;SDS011;44895;47.438;18.978;2024-03-08T14:40:53;23.85;;;16.30;;
59109;SDS011;44895;47.438;18.978;2024-03-08T14:43:57;27.85;;;18.73;;
59109;SDS011;44895;47.438;18.978;2024-03-08T14:47:00;27.13;;;17.85;;
59109;SDS011;44895;47.438;18.978;2024-03-08T14:50:05;29.40;;;18.10;;
59109;SDS011;44895;47.438;18.978;2024-03-08T14:53:10;27.20;;;18.70;;
59109;SDS011;44895;47.438;18.978;2024-03-08T14:56:14;32.03;;;17.38;;
59109;SDS011;44895;47.438;18.978;2024-03-08T14:59:19;26.83;;;17.83;;
59109;SDS011;44895;47.438;18.978;2024-03-08T15:02:23;28.52;;;16.90;;
59109;SDS011;44895;47.438;18.978;2024-03-08T15:05:27;26.00;;;17.88;;
59109;SDS011;44895;47.438;18.978;2024-03-08T15:08:31;28.02;;;19.83;;
59109;SDS011;44895;47.438;18.978;2024-03-08T15:11:35;26.48;;;19.55;;
59109;SDS011;44895;47.438;18.978;2024-03-08T15:14:41;26.50;;;17.65;;
59109;SDS011;44895;47.438;18.978;2024-03-08T15:17:46;30.35;;;19.20;;
59109;SDS011;44895;47.438;18.978;2024-03-08T15:20:50;30.65;;;21.13;;
59109;SDS011;44895;47.438;18.978;2024-03-08T15:23:54;30.70;;;20.73;;
59109;SDS011;44895;47.438;18.978;2024-03-08T15:26:58;34.35;;;22.83;;
59109;SDS011;44895;47.438;18.978;2024-03-08T15:30:03;45.58;;;23.15;;
59109;SDS011;44895;47.438;18.978;2024-03-08T15:33:07;31.95;;;20.98;;
59109;SDS011;44895;47.438;18.978;2024-03-08T15:36:13;30.63;;;20.98;;
59109;SDS011;44895;47.438;18.978;2024-03-08T15:39:19;32.83;;;22.90;;
59109;SDS011;44895;47.438;18.978;2024-03-08T15:42:27;29.85;;;21.45;;
59109;SDS011;44895;47.438;18.978;2024-03-08T15:45:31;29.70;;;21.48;;
59109;SDS011;44895;47.438;18.978;2024-03-08T15:48:36;29.77;;;19.88;;
59109;SDS011;44895;47.438;18.978;2024-03-08T15:51:40;30.52;;;20.67;;
59109;SDS011;44895;47.438;18.978;2024-03-08T15:54:44;30.02;;;20.52;;
59109;SDS011;44895;47.438;18.978;2024-03-08T15:57:49;34.30;;;20.55;;
59109;SDS011;44895;47.438;18.978;2024-03-08T16:00:53;31.92;;;21.63;;
59109;SDS011;44895;47.438;18.978;2024-03-08T16:03:58;34.42;;;22.40;;
59109;SDS011;44895;47.438;18.978;2024-03-08T16:07:02;28.58;;;20.33;;
59109;SDS011;44895;47.438;18.978;2024-03-08T16:10:06;32.75;;;21.65;;
59109;SDS011;44895;47.438;18.978;2024-03-08T16:13:10;30.02;;;20.90;;
59109;SDS011;44895;47.438;18.978;2024-03-08T16:16:14;30.63;;;20.05;;
59109;SDS011;44895;47.438;18.978;2024-03-08T16:19:17;39.17;;;24.00;;
59109;SDS011;44895;47.438;18.978;2024-03-08T16:22:21;33.90;;;22.30;;
59109;SDS011;44895;47.438;18.978;2024-03-08T16:25:24;36.65;;;24.08;;
59109;SDS011;44895;47.438;18.978;2024-03-08T16:28:28;32.30;;;21.75;;
59109;SDS011;44895;47.438;18.978;2024-03-08T16:31:41;35.53;;;22.77;;
59109;SDS011;44895;47.438;18.978;2024-03-08T16:34:48;30.55;;;21.80;;
59109;SDS011;44895;47.438;18.978;2024-03-08T16:37:52;35.70;;;22.45;;
59109;SDS011;44895;47.438;18.978;2024-03-08T16:40:55;33.33;;;21.63;;
59109;SDS011;44895;47.438;18.978;2024-03-08T16:44:00;32.40;;;22.38;;
59109;SDS011;44895;47.438;18.978;2024-03-08T16:47:04;35.25;;;24.30;;
59109;SDS011;44895;47.438;18.978;2024-03-08T16:50:07;35.33;;;21.00;;
59109;SDS011;44895;47.438;18.978;2024-03-08T16:53:12;39.25;;;22.92;;
59109;SDS011;44895;47.438;18.978;2024-03-08T16:56:16;35.17;;;21.98;;
59109;SDS011;44895;47.438;18.978;2024-03-08T16:59:21;33.92;;;21.95;;
59109;SDS011;44895;47.438;18.978;2024-03-08T17:02:25;33.83;;;24.00;;
59109;SDS011;44895;47.438;18.978;2024-03-08T17:05:29;33.00;;;22.83;;
59109;SDS011;44895;47.438;18.978;2024-03-08T17:08:33;36.33;;;23.73;;
59109;SDS011;44895;47.438;18.978;2024-03-08T17:11:39;34.40;;;23.23;;
59109;SDS011;44895;47.438;18.978;2024-03-08T17:14:43;35.10;;;25.45;;
59109;SDS011;44895;47.438;18.978;2024-03-08T17:17:46;34.83;;;22.02;;
59109;SDS011;44895;47.438;18.978;2024-03-08T17:20:51;31.77;;;22.80;;
59109;SDS011;44895;47.438;18.978;2024-03-08T17:23:54;32.67;;;23.27;;
59109;SDS011;44895;47.438;18.978;2024-03-08T17:26:59;30.73;;;20.27;;
59109;SDS011;44895;47.438;18.978;2024-03-08T17:30:03;27.92;;;20.98;;
59109;SDS011;44895;47.438;18.978;2024-03-08T17:33:20;35.33;;;21.83;;
59109;SDS011;44895;47.438;18.978;2024-03-08T17:36:27;32.45;;;22.38;;
59109;SDS011;44895;47.438;18.978;2024-03-08T17:39:32;30.42;;;22.60;;
59109;SDS011;44895;47.438;18.978;2024-03-08T17:42:37;35.33;;;25.15;;
59109;SDS011;44895;47.438;18.978;2024-03-08T17:45:42;30.35;;;22.50;;
59109;SDS011;44895;47.438;18.978;2024-03-08T17:48:48;38.70;;;24.63;;
59109;SDS011;44895;47.438;18.978;2024-03-08T17:51:51;30.30;;;23.30;;
59109;SDS011;44895;47.438;18.978;2024-03-08T17:54:55;30.40;;;21.38;;